Time;durP1;ratioP1;P1;durP2;ratioP2;P2;SDS_P1;SDS_P2;PMS_P1;PMS_P2;Temp;Humidity;BMP_temperature;BMP_pressure;BME280_temperature;BME280_humidity;BME280_pressure;Samples;Min_cycle;Max_cycle;Signal;HPM_P1;HPM_P2
2022/03/14 00:01:23;;;;;;;10.00;9.70;;;3.10;99.90;;;;;;4962443;28;20238;-82
2022/03/14 00:03:55;;;;;;;10.00;9.70;;;3.00;99.90;;;;;;4961667;28;20237;-82
2022/03/14 00:06:23;;;;;;;9.87;9.57;;;2.80;99.90;;;;;;4961596;28;20237;-83
2022/03/14 00:08:54;;;;;;;10.10;9.80;;;2.60;99.90;;;;;;4967518;28;20234;-81
2022/03/14 00:14:25;;;;;;;10.20;9.90;;;2.50;99.90;;;;;;4966095;28;20310;-82
2022/03/14 00:17:10;;;;;;;9.87;9.57;;;2.50;99.90;;;;;;4967996;28;20233;-81
2022/03/14 00:19:42;;;;;;;9.90;9.60;;;2.40;99.90;;;;;;4976662;28;20248;-80
2022/03/14 00:22:13;;;;;;;10.00;9.70;;;2.30;99.90;;;;;;4976677;28;20293;-79
2022/03/14 00:24:49;;;;;;;10.30;10.00;;;2.30;99.90;;;;;;4968915;28;20289;-83
2022/03/14 00:27:28;;;;;;;10.00;9.70;;;2.20;99.90;;;;;;4965380;28;21125;-83
2022/03/14 00:29:57;;;;;;;9.90;9.60;;;2.10;99.90;;;;;;4963567;28;20293;-80
2022/03/14 00:32:37;;;;;;;10.27;9.97;;;2.10;99.90;;;;;;4962690;28;20241;-81
2022/03/14 00:35:08;;;;;;;10.00;9.70;;;2.00;99.90;;;;;;4962905;28;20249;-81
2022/03/14 00:37:36;;;;;;;10.00;9.70;;;2.00;99.90;;;;;;4964692;28;20258;-80
2022/03/14 00:40:07;;;;;;;9.97;9.67;;;2.00;99.90;;;;;;4963511;28;20289;-81
2022/03/14 00:42:43;;;;;;;9.90;9.60;;;1.90;99.90;;;;;;4964093;28;20236;-81
2022/03/14 00:45:12;;;;;;;10.00;9.70;;;1.90;99.90;;;;;;4963984;28;20325;-81
2022/03/14 00:56:20;;;;;;;10.00;9.70;;;1.60;99.90;;;;;;4863130;29;20261;-87
2022/03/14 03:27:40;;;;;;;9.90;9.60;;;0.20;99.90;;;;;;4856226;29;20233;-87
2022/03/14 06:50:50;;;;;;;9.97;9.67;;;2.80;99.90;;;;;;5100012;28;20234;-80
2022/03/14 06:53:18;;;;;;;9.93;9.63;;;2.80;99.90;;;;;;5102179;28;20225;-77
2022/03/14 06:58:28;;;;;;;10.40;10.10;;;2.80;99.90;;;;;;5100962;28;20210;-81
2022/03/14 07:00:56;;;;;;;10.00;9.70;;;2.90;99.90;;;;;;5102820;28;20211;-78
2022/03/14 07:03:35;;;;;;;10.40;10.10;;;2.90;99.90;;;;;;5093732;28;20226;-80
2022/03/14 07:06:06;;;;;;;10.30;10.00;;;2.90;99.90;;;;;;5102430;28;20236;-82
2022/03/14 07:08:34;;;;;;;10.30;10.00;;;3.00;99.90;;;;;;5098678;28;20229;-82
2022/03/14 07:11:02;;;;;;;10.20;9.90;;;3.00;99.90;;;;;;5094575;28;20233;-82
2022/03/14 07:13:31;;;;;;;10.37;10.07;;;3.10;99.90;;;;;;5088153;28;20229;-82
2022/03/14 07:18:40;;;;;;;10.40;10.10;;;3.20;99.90;;;;;;5088696;28;20248;-82
2022/03/14 07:21:11;;;;;;;10.63;10.33;;;3.20;99.90;;;;;;5096088;28;20237;-82
2022/03/14 07:23:39;;;;;;;10.67;10.37;;;3.30;99.90;;;;;;5087860;28;20222;-82
2022/03/14 07:26:07;;;;;;;10.63;10.33;;;3.30;99.90;;;;;;5086661;28;20234;-82
2022/03/14 07:28:37;;;;;;;10.90;10.60;;;3.30;99.90;;;;;;5083991;28;20241;-82
2022/03/14 07:31:06;;;;;;;10.80;10.50;;;3.30;99.90;;;;;;5084907;28;20256;-82
2022/03/14 07:33:36;;;;;;;10.53;10.23;;;3.40;99.90;;;;;;5084557;28;20238;-82
2022/03/14 07:36:06;;;;;;;10.80;10.50;;;3.40;99.90;;;;;;5084031;28;20234;-82
2022/03/14 07:38:38;;;;;;;10.33;10.03;;;3.50;99.90;;;;;;5084640;28;20317;-82
2022/03/14 07:41:06;;;;;;;10.67;10.37;;;3.50;99.90;;;;;;5085949;28;20234;-82
2022/03/14 07:43:34;;;;;;;10.90;10.60;;;3.60;99.90;;;;;;5084633;28;20230;-82
2022/03/14 07:46:03;;;;;;;10.47;10.17;;;3.70;99.90;;;;;;5085875;28;20233;-82
2022/03/14 07:48:33;;;;;;;10.80;10.50;;;3.80;99.90;;;;;;5085156;28;20230;-82
2022/03/14 07:51:06;;;;;;;11.10;10.80;;;3.90;99.90;;;;;;5085708;28;20222;-82
2022/03/14 07:53:43;;;;;;;11.60;11.20;;;4.00;99.90;;;;;;5085128;28;20226;-82
2022/03/14 07:56:13;;;;;;;11.33;10.97;;;4.10;99.90;;;;;;5086101;28;20244;-81
2022/03/14 07:58:42;;;;;;;11.40;11.00;;;4.30;99.90;;;;;;5090336;28;20238;-80
2022/03/14 08:01:11;;;;;;;11.47;11.07;;;4.40;99.90;;;;;;5099805;28;20227;-82
2022/03/14 08:03:39;;;;;;;11.77;11.37;;;4.50;99.90;;;;;;5100349;28;20199;-82
2022/03/14 08:06:10;;;;;;;11.47;11.07;;;4.50;99.90;;;;;;5091157;28;20275;-82
2022/03/14 08:08:41;;;;;;;11.77;11.37;;;4.60;99.90;;;;;;5086662;28;20230;-82
2022/03/14 08:11:09;;;;;;;11.03;10.73;;;4.60;99.90;;;;;;5086859;28;20226;-82
2022/03/14 08:13:37;;;;;;;11.40;11.00;;;4.60;99.90;;;;;;5084167;28;20230;-82
2022/03/14 08:16:07;;;;;;;11.23;10.83;;;4.60;99.90;;;;;;5085471;28;20353;-82
2022/03/14 08:18:38;;;;;;;11.20;10.80;;;4.40;99.90;;;;;;5083871;28;20233;-82
2022/03/14 08:21:06;;;;;;;11.13;10.73;;;4.40;99.90;;;;;;5084264;28;20282;-82
2022/03/14 08:23:35;;;;;;;11.23;10.83;;;4.40;99.90;;;;;;5085617;28;20229;-82
2022/03/14 08:26:14;;;;;;;10.77;10.47;;;4.50;99.90;;;;;;5097481;28;20214;-82
2022/03/14 08:28:44;;;;;;;11.63;11.23;;;4.60;99.90;;;;;;5096691;28;20244;-82
2022/03/14 08:31:13;;;;;;;11.27;10.87;;;4.80;99.90;;;;;;5089080;28;20214;-82
2022/03/14 08:33:45;;;;;;;11.10;10.70;;;5.00;99.90;;;;;;5086806;28;20230;-82
2022/03/14 08:54:59;;;;;;;11.47;11.07;;;6.00;99.90;;;;;;4941124;28;20228;-89
2022/03/14 08:57:35;;;;;;;11.13;10.83;;;6.10;99.90;;;;;;5039039;28;20234;-87
2022/03/14 09:03:00;;;;;;;11.40;11.00;;;6.30;99.90;;;;;;5099544;28;20222;-89
2022/03/14 10:24:15;;;;;;;10.03;9.73;;;9.70;99.90;;;;;;5087341;28;20214;-84
2022/03/14 10:30:31;;;;;;;10.27;9.97;;;9.60;99.90;;;;;;5084091;28;20230;-83
2022/03/14 10:54:31;;;;;;;10.00;9.70;;;9.60;99.90;;;;;;5065106;28;20330;-83
2022/03/14 10:57:21;;;;;;;10.10;9.80;;;9.60;99.90;;;;;;5066170;28;20318;-83
2022/03/14 11:05:32;;;;;;;9.70;9.40;;;9.80;99.90;;;;;;5066313;28;20234;-85
2022/03/14 11:10:57;;;;;;;9.87;9.57;;;9.90;99.90;;;;;;5079621;28;20340;-83
2022/03/14 11:13:44;;;;;;;9.97;9.67;;;9.90;99.90;;;;;;5086295;28;20228;-83
2022/03/14 11:16:40;;;;;;;;;;;;;;;;;;;;;
2022/03/14 11:25:33;;;;;;;10.07;9.77;;;10.00;99.90;;;;;;5023916;28;20227;-83
2022/03/14 11:28:50;;;;;;;;;;;;;;;;;;;;;
2022/03/14 11:35:16;;;;;;;10.10;9.80;;;9.80;99.90;;;;;;5082625;28;20220;-83
2022/03/14 11:38:23;;;;;;;9.80;9.50;;;9.70;99.90;;;;;;5086448;28;20226;-83
2022/03/14 11:47:19;;;;;;;10.40;10.10;;;10.20;99.90;;;;;;5087098;28;20244;-84
2022/03/14 11:53:36;;;;;;;10.37;10.07;;;10.90;99.90;;;;;;5094078;28;20206;-82
2022/03/14 11:59:45;;;;;;;10.13;9.83;;;11.50;99.90;;;;;;5100111;27;20302;-83
2022/03/14 12:02:50;;;;;;;10.10;9.80;;;11.90;99.90;;;;;;5096587;27;20222;-83
2022/03/14 12:05:57;;;;;;;10.23;9.93;;;12.40;99.90;;;;;;5092154;28;20241;-83
2022/03/14 12:09:01;;;;;;;10.33;10.03;;;12.70;99.90;;;;;;5098983;27;20253;-83
2022/03/14 12:12:42;;;;;;;10.70;10.40;;;13.00;99.90;;;;;;5099027;28;20248;-83
2022/03/14 12:49:50;;;;;;;10.70;10.40;;;13.60;99.90;;;;;;4926962;22;20281;-85
2022/03/14 12:52:21;;;;;;;10.73;10.43;;;13.10;99.90;;;;;;5059286;28;20258;-83
2022/03/14 12:54:50;;;;;;;11.00;10.70;;;13.10;99.90;;;;;;5051826;28;20226;-83
2022/03/14 12:57:24;;;;;;;11.03;10.73;;;13.10;99.90;;;;;;5060254;28;20230;-83
2022/03/14 13:00:00;;;;;;;11.13;10.83;;;13.10;99.90;;;;;;5059861;28;20296;-83
2022/03/14 13:02:29;;;;;;;10.73;10.43;;;13.50;99.90;;;;;;5059923;28;20224;-82
2022/03/14 13:04:58;;;;;;;11.07;10.77;;;13.90;99.90;;;;;;5060537;28;20241;-82
2022/03/14 13:07:28;;;;;;;11.10;10.80;;;14.20;99.90;;;;;;5059892;28;20292;-82
2022/03/14 13:09:58;;;;;;;11.20;10.90;;;14.40;99.90;;;;;;5060070;28;20246;-82
2022/03/14 13:12:29;;;;;;;10.90;10.60;;;14.20;99.90;;;;;;5074630;28;20240;-83
2022/03/14 13:15:06;;;;;;;11.00;10.70;;;14.00;99.90;;;;;;5081331;28;20285;-82
2022/03/14 13:17:33;;;;;;;10.70;10.40;;;13.80;99.90;;;;;;5080638;28;20233;-82
2022/03/14 13:20:02;;;;;;;11.10;10.80;;;13.60;99.90;;;;;;5080049;28;20237;-83
2022/03/14 13:22:33;;;;;;;10.80;10.50;;;13.30;99.90;;;;;;5079985;28;20669;-83
2022/03/14 13:25:02;;;;;;;10.83;10.53;;;13.20;99.90;;;;;;5082319;28;20241;-83
2022/03/14 13:27:30;;;;;;;10.70;10.40;;;13.10;99.90;;;;;;5081009;28;20230;-82
2022/03/14 13:29:58;;;;;;;11.07;10.77;;;13.00;99.90;;;;;;5080539;28;20241;-81
2022/03/14 13:32:26;;;;;;;10.80;10.50;;;12.70;99.90;;;;;;5080092;28;20226;-82
2022/03/14 13:35:08;;;;;;;10.70;10.40;;;12.60;99.90;;;;;;5080516;28;20241;-82
2022/03/14 13:37:44;;;;;;;11.00;10.70;;;12.60;99.90;;;;;;5081041;28;20230;-82
2022/03/14 13:40:20;;;;;;;10.90;10.60;;;12.60;99.90;;;;;;5081716;28;20292;-81
2022/03/14 13:42:58;;;;;;;11.00;10.70;;;12.60;99.90;;;;;;5082692;28;20230;-81
2022/03/14 13:45:26;;;;;;;11.00;10.70;;;12.70;99.90;;;;;;5080536;28;20230;-82
2022/03/14 13:47:58;;;;;;;10.80;10.50;;;13.10;99.90;;;;;;5078692;28;20272;-81
2022/03/14 13:50:26;;;;;;;10.80;10.50;;;13.20;99.90;;;;;;5078354;28;20230;-82
2022/03/14 13:52:56;;;;;;;10.80;10.50;;;13.20;99.90;;;;;;5084358;28;20210;-82
2022/03/14 13:55:25;;;;;;;11.00;10.70;;;13.20;99.90;;;;;;5068302;28;20234;-82
2022/03/14 13:58:00;;;;;;;10.83;10.53;;;13.20;99.90;;;;;;5066189;28;20261;-83
2022/03/14 14:00:28;;;;;;;10.90;10.60;;;13.00;99.90;;;;;;5060043;28;20238;-82
2022/03/14 14:02:59;;;;;;;10.93;10.63;;;12.90;99.90;;;;;;5051830;28;20299;-82
2022/03/14 14:05:38;;;;;;;11.43;11.03;;;12.90;99.90;;;;;;5057947;28;20288;-82
2022/03/14 14:08:08;;;;;;;11.20;10.90;;;12.90;99.90;;;;;;5058155;28;20230;-82
2022/03/14 14:10:37;;;;;;;11.00;10.70;;;12.90;99.90;;;;;;5058866;28;20239;-82
2022/03/14 14:13:06;;;;;;;10.53;10.23;;;12.90;99.90;;;;;;5057808;28;20314;-83
2022/03/14 14:15:44;;;;;;;10.00;9.70;;;13.00;99.90;;;;;;5060103;28;20611;-83
2022/03/14 14:18:20;;;;;;;10.50;10.20;;;13.00;99.90;;;;;;5059928;28;20234;-82
2022/03/14 14:20:48;;;;;;;10.33;10.03;;;13.10;99.90;;;;;;5058322;28;20230;-81
2022/03/14 14:23:20;;;;;;;10.17;9.87;;;13.20;99.90;;;;;;5058696;28;20227;-82
2022/03/14 14:25:50;;;;;;;10.50;10.20;;;13.10;99.90;;;;;;5063924;28;20245;-83
2022/03/14 14:28:21;;;;;;;10.40;10.10;;;13.20;99.90;;;;;;5061457;28;20285;-82
2022/03/14 14:30:52;;;;;;;10.27;9.97;;;13.20;99.90;;;;;;5059484;28;20293;-84
2022/03/14 14:33:22;;;;;;;10.47;10.17;;;13.10;99.90;;;;;;5059150;28;20257;-83
2022/03/14 14:35:52;;;;;;;10.30;10.00;;;13.00;99.90;;;;;;5062354;28;20242;-83
2022/03/14 14:38:24;;;;;;;10.40;10.10;;;13.20;99.90;;;;;;5061126;28;20234;-84
2022/03/14 14:40:55;;;;;;;10.43;10.13;;;13.30;99.90;;;;;;5058852;28;20241;-82
2022/03/14 14:43:26;;;;;;;10.13;9.83;;;13.50;99.90;;;;;;5067281;28;20254;-83
2022/03/14 14:45:55;;;;;;;10.47;10.17;;;13.50;99.90;;;;;;5064722;28;20792;-83
2022/03/14 14:48:24;;;;;;;10.13;9.83;;;13.90;99.90;;;;;;5062143;28;20235;-82
2022/03/14 14:50:53;;;;;;;10.18;9.88;;;14.40;99.90;;;;;;5061151;28;20238;-82
2022/03/14 14:53:24;;;;;;;10.48;10.18;;;14.70;99.90;;;;;;5062732;28;20211;-83
2022/03/14 14:56:04;;;;;;;10.48;10.18;;;15.10;99.90;;;;;;5062765;28;20235;-83
2022/03/14 14:58:33;;;;;;;10.25;9.95;;;15.70;99.90;;;;;;5062333;28;20309;-82
2022/03/14 15:01:01;;;;;;;10.15;9.85;;;16.30;99.90;;;;;;5062089;28;20235;-83
2022/03/14 15:03:31;;;;;;;10.30;10.00;;;16.90;99.90;;;;;;5062135;28;20234;-82
2022/03/14 15:05:58;;;;;;;10.23;9.93;;;17.20;99.90;;;;;;5063170;28;20277;-82
2022/03/14 15:08:28;;;;;;;10.02;9.73;;;17.30;99.90;;;;;;5063479;28;20234;-83
2022/03/14 15:10:56;;;;;;;10.20;9.90;;;16.90;99.90;;;;;;5063093;28;20243;-83
2022/03/14 15:13:26;;;;;;;10.00;9.70;;;16.00;99.90;;;;;;5062330;28;20231;-83
2022/03/14 15:15:56;;;;;;;10.10;9.80;;;15.80;99.90;;;;;;5062719;28;20231;-83
2022/03/14 15:18:24;;;;;;;10.30;10.00;;;16.40;99.90;;;;;;5064618;28;20256;-83
2022/03/14 15:20:51;;;;;;;10.07;9.77;;;16.70;99.90;;;;;;5063190;28;20300;-83
2022/03/14 15:23:20;;;;;;;9.85;9.55;;;17.10;99.90;;;;;;5061948;28;20219;-83
2022/03/14 15:25:49;;;;;;;9.90;9.60;;;17.60;99.90;;;;;;5064517;28;20231;-81
2022/03/14 15:28:17;;;;;;;9.88;9.57;;;17.80;99.90;;;;;;5065849;28;20242;-82
2022/03/14 15:30:47;;;;;;;9.88;9.57;;;17.70;99.90;;;;;;5062264;28;20230;-82
2022/03/14 15:33:14;;;;;;;9.85;9.55;;;17.70;99.90;;;;;;5072271;28;20247;-82
2022/03/14 15:35:43;;;;;;;10.00;9.70;;;18.10;99.90;;;;;;5065887;28;20242;-82
2022/03/14 15:38:12;;;;;;;10.15;9.85;;;18.30;99.90;;;;;;5064750;28;20258;-82
2022/03/14 15:40:43;;;;;;;10.05;9.75;;;18.70;99.90;;;;;;5064812;28;20227;-82
2022/03/14 15:43:12;;;;;;;10.25;9.95;;;18.60;99.90;;;;;;5070175;28;20266;-83
2022/03/14 15:45:40;;;;;;;10.45;10.15;;;17.70;99.90;;;;;;5079327;28;20226;-82
2022/03/14 15:48:08;;;;;;;10.23;9.93;;;17.10;99.90;;;;;;5079566;28;20239;-84
2022/03/14 15:50:36;;;;;;;10.38;10.07;;;16.80;99.90;;;;;;5078510;28;20278;-83
2022/03/14 15:53:04;;;;;;;10.20;9.90;;;16.60;99.90;;;;;;5079451;28;20263;-83
2022/03/14 15:55:32;;;;;;;10.10;9.80;;;16.20;99.90;;;;;;5079649;28;20218;-83
2022/03/14 15:58:04;;;;;;;10.30;10.00;;;16.10;99.90;;;;;;5079757;28;20231;-84
2022/03/14 16:00:33;;;;;;;10.30;10.00;;;15.90;99.90;;;;;;5078630;28;20273;-83
2022/03/14 16:03:01;;;;;;;10.10;9.80;;;15.50;99.90;;;;;;5079002;28;20247;-83
2022/03/14 16:05:29;;;;;;;10.32;10.02;;;15.50;99.90;;;;;;5079294;28;20243;-84
2022/03/14 16:07:58;;;;;;;10.18;9.88;;;15.60;99.90;;;;;;5080109;28;20233;-84
2022/03/14 16:10:28;;;;;;;10.10;9.80;;;15.70;99.90;;;;;;5079757;28;20233;-83
2022/03/14 16:12:56;;;;;;;9.90;9.60;;;15.60;99.90;;;;;;5079943;28;20219;-83
2022/03/14 16:15:27;;;;;;;10.07;9.77;;;15.40;99.90;;;;;;5077768;28;20206;-83
2022/03/14 16:17:57;;;;;;;9.40;9.10;;;15.20;99.90;;;;;;5074435;28;20219;-82
2022/03/14 16:20:26;;;;;;;9.80;9.50;;;14.60;99.90;;;;;;5075109;28;20343;-83
2022/03/14 16:22:54;;;;;;;9.70;9.40;;;14.40;99.90;;;;;;5078321;28;20240;-83
2022/03/14 16:25:23;;;;;;;9.70;9.40;;;14.30;99.90;;;;;;5077520;28;20237;-85
2022/03/14 16:27:53;;;;;;;9.60;9.30;;;14.00;99.90;;;;;;5071793;28;20354;-82
2022/03/14 16:30:23;;;;;;;9.63;9.33;;;13.80;99.90;;;;;;5083603;28;20237;-83
2022/03/14 16:32:51;;;;;;;9.63;9.33;;;13.70;99.90;;;;;;5083026;28;20231;-82
2022/03/14 16:35:20;;;;;;;10.00;9.70;;;13.60;99.90;;;;;;5084083;28;20234;-81
2022/03/14 16:37:48;;;;;;;9.80;9.50;;;13.50;99.90;;;;;;5083581;28;20314;-82
2022/03/14 16:40:18;;;;;;;9.53;9.23;;;13.40;99.90;;;;;;5072460;28;20246;-82
2022/03/14 16:42:46;;;;;;;9.93;9.63;;;13.30;99.90;;;;;;5062889;28;20297;-83
2022/03/14 16:45:15;;;;;;;10.10;9.80;;;13.30;99.90;;;;;;5065865;28;20352;-84
2022/03/14 16:47:47;;;;;;;9.90;9.60;;;13.30;99.90;;;;;;5071519;28;20231;-83
2022/03/14 16:50:23;;;;;;;10.10;9.80;;;13.10;99.90;;;;;;5063931;28;20245;-83
2022/03/14 16:52:52;;;;;;;10.00;9.70;;;13.00;99.90;;;;;;5063071;28;20231;-84
2022/03/14 16:55:20;;;;;;;9.87;9.57;;;12.80;99.90;;;;;;5061257;28;20257;-82
2022/03/14 16:57:51;;;;;;;9.90;9.60;;;12.80;99.90;;;;;;5061621;28;20238;-83
2022/03/14 17:00:20;;;;;;;9.93;9.63;;;12.70;99.90;;;;;;5062365;28;20242;-83
2022/03/14 17:02:48;;;;;;;10.23;9.93;;;12.60;99.90;;;;;;5071401;28;20226;-83
2022/03/14 17:05:17;;;;;;;10.10;9.80;;;12.60;99.90;;;;;;5081152;28;20238;-83
2022/03/14 17:07:47;;;;;;;10.17;9.87;;;12.50;99.90;;;;;;5081257;28;20789;-83
2022/03/14 17:12:57;;;;;;;10.00;9.70;;;12.30;99.90;;;;;;5079012;28;20221;-84
2022/03/14 17:15:25;;;;;;;10.00;9.70;;;12.30;99.90;;;;;;5081586;28;20230;-83
2022/03/14 17:17:56;;;;;;;10.30;10.00;;;12.30;99.90;;;;;;5081085;28;20266;-84
2022/03/14 17:20:24;;;;;;;9.93;9.63;;;12.20;99.90;;;;;;5080824;28;20230;-84
2022/03/14 17:22:54;;;;;;;9.70;9.40;;;12.20;99.90;;;;;;5080388;28;20233;-83
2022/03/14 17:25:23;;;;;;;9.50;9.20;;;12.10;99.90;;;;;;5080380;28;20260;-82
2022/03/14 17:27:51;;;;;;;9.50;9.20;;;12.00;99.90;;;;;;5079945;28;20238;-83
2022/03/14 17:30:18;;;;;;;9.60;9.30;;;12.00;99.90;;;;;;5089657;28;20233;-83
2022/03/14 17:32:46;;;;;;;9.33;9.03;;;11.90;99.90;;;;;;5080662;28;20235;-84
2022/03/14 17:35:14;;;;;;;9.83;9.53;;;11.80;99.90;;;;;;5076288;28;20376;-85
2022/03/14 17:37:43;;;;;;;9.37;9.07;;;11.80;99.90;;;;;;5076123;28;20233;-87
2022/03/14 17:40:14;;;;;;;9.20;8.90;;;11.70;99.90;;;;;;5068244;28;20219;-82
2022/03/14 17:42:44;;;;;;;8.97;8.73;;;11.70;99.90;;;;;;5064567;28;20215;-84
2022/03/14 17:45:13;;;;;;;8.83;8.63;;;11.60;99.90;;;;;;5064002;28;20241;-85
2022/03/14 17:47:41;;;;;;;9.00;8.80;;;11.50;99.90;;;;;;5065634;28;20770;-85
2022/03/14 17:50:12;;;;;;;9.10;8.80;;;11.50;99.90;;;;;;5063049;28;20231;-84
2022/03/14 17:52:40;;;;;;;8.80;8.60;;;11.40;99.90;;;;;;5061847;28;20219;-85
2022/03/14 17:55:10;;;;;;;9.23;8.93;;;11.30;99.90;;;;;;5062828;28;20233;-85
2022/03/14 17:57:39;;;;;;;8.90;8.70;;;11.10;99.90;;;;;;5062826;28;20242;-85
2022/03/14 18:00:10;;;;;;;9.20;8.90;;;11.10;99.90;;;;;;5064200;28;20337;-85
2022/03/14 18:02:38;;;;;;;8.70;8.50;;;10.90;99.90;;;;;;5063817;28;20219;-85
2022/03/14 18:05:07;;;;;;;8.60;8.40;;;10.80;99.90;;;;;;5062528;28;20234;-85
2022/03/14 18:07:36;;;;;;;8.70;8.50;;;10.70;99.90;;;;;;5062337;28;20281;-84
2022/03/14 18:10:06;;;;;;;9.20;8.90;;;10.60;99.90;;;;;;5061700;28;20222;-83
2022/03/14 18:12:35;;;;;;;9.10;8.80;;;10.60;99.90;;;;;;5063218;28;20219;-84
2022/03/14 18:15:06;;;;;;;9.20;8.90;;;10.40;99.90;;;;;;5062104;28;20325;-83
2022/03/14 18:17:34;;;;;;;9.10;8.80;;;10.30;99.90;;;;;;5063034;28;20230;-84
2022/03/14 18:20:01;;;;;;;9.10;8.80;;;10.20;99.90;;;;;;5066361;28;20241;-84
2022/03/14 18:22:30;;;;;;;9.00;8.80;;;10.10;99.90;;;;;;5066262;28;20245;-83
2022/03/14 18:24:58;;;;;;;9.00;8.80;;;10.00;99.90;;;;;;5067172;28;20240;-84
2022/03/14 18:27:26;;;;;;;8.90;8.70;;;9.90;99.90;;;;;;5064000;28;20246;-84
2022/03/14 18:29:54;;;;;;;9.30;9.00;;;9.80;99.90;;;;;;5062858;28;20238;-84
2022/03/14 18:32:23;;;;;;;9.20;8.90;;;9.70;99.90;;;;;;5069405;28;20292;-84
2022/03/14 18:34:52;;;;;;;9.33;9.03;;;9.60;99.90;;;;;;5072458;28;20288;-84
2022/03/14 18:37:26;;;;;;;9.23;8.93;;;9.50;99.90;;;;;;5068150;28;20230;-84
2022/03/14 18:39:53;;;;;;;9.00;8.73;;;9.40;99.90;;;;;;5066233;28;20231;-85
2022/03/14 18:42:21;;;;;;;9.03;8.83;;;9.30;99.90;;;;;;5065734;28;20326;-84
2022/03/14 18:44:49;;;;;;;8.90;8.70;;;9.20;99.90;;;;;;5075307;28;20230;-84
2022/03/14 18:47:17;;;;;;;9.33;9.03;;;9.10;99.90;;;;;;5073555;28;20241;-84
2022/03/14 18:49:46;;;;;;;9.20;8.90;;;9.00;99.90;;;;;;5073194;28;20226;-84
2022/03/14 18:52:15;;;;;;;9.20;8.90;;;8.80;99.90;;;;;;5094390;22;21039;-83
2022/03/14 18:54:49;;;;;;;9.47;9.17;;;8.70;99.90;;;;;;5067738;28;20318;-81
2022/03/14 18:57:18;;;;;;;9.50;9.20;;;8.60;99.90;;;;;;5070090;28;20281;-81
2022/03/14 18:59:46;;;;;;;9.00;8.80;;;8.50;99.90;;;;;;5070117;28;20241;-82
2022/03/14 19:02:16;;;;;;;8.83;8.63;;;8.40;99.90;;;;;;5069957;28;20253;-81
2022/03/14 19:04:54;;;;;;;9.23;8.97;;;8.30;99.90;;;;;;5069137;28;20249;-82
2022/03/14 19:07:23;;;;;;;9.47;9.17;;;8.30;99.90;;;;;;5070149;28;20257;-82
2022/03/14 19:09:51;;;;;;;9.30;9.00;;;8.20;99.90;;;;;;5074780;28;20237;-80
2022/03/14 19:12:20;;;;;;;9.23;8.93;;;8.10;99.90;;;;;;5069095;28;20245;-82
2022/03/14 19:14:52;;;;;;;9.17;8.93;;;7.90;99.90;;;;;;5069527;28;20333;-82
2022/03/14 19:17:24;;;;;;;9.40;9.10;;;7.80;99.90;;;;;;5069043;28;20245;-81
2022/03/14 19:19:58;;;;;;;9.43;9.13;;;7.70;99.90;;;;;;5067794;28;20231;-82
2022/03/14 19:22:26;;;;;;;9.33;9.03;;;7.70;99.90;;;;;;5069942;28;20298;-80
2022/03/14 19:24:56;;;;;;;9.60;9.30;;;7.60;99.90;;;;;;5068992;28;20291;-81
2022/03/14 19:27:26;;;;;;;9.30;9.00;;;7.50;99.90;;;;;;5069808;28;20230;-81
2022/03/14 19:29:54;;;;;;;9.40;9.10;;;7.50;99.90;;;;;;5070616;28;20258;-82
2022/03/14 19:32:25;;;;;;;9.30;9.00;;;7.40;99.90;;;;;;5067867;28;20295;-82
2022/03/14 19:34:58;;;;;;;9.00;8.80;;;7.30;99.90;;;;;;5068452;28;20238;-83
2022/03/14 19:37:32;;;;;;;9.20;8.90;;;7.30;99.90;;;;;;5068264;28;20235;-81
2022/03/14 19:40:01;;;;;;;9.40;9.10;;;7.20;99.90;;;;;;5070695;28;20278;-81
2022/03/14 19:42:32;;;;;;;9.13;8.90;;;7.10;99.90;;;;;;5066965;28;20245;-81
2022/03/14 19:45:01;;;;;;;8.90;8.70;;;7.10;99.90;;;;;;5068139;28;20230;-81
2022/03/14 19:47:31;;;;;;;9.33;9.03;;;7.00;99.90;;;;;;5067518;28;20257;-81
2022/03/14 19:52:49;;;;;;;8.87;8.67;;;6.80;99.90;;;;;;5071897;28;20214;-80
2022/03/14 19:55:18;;;;;;;9.37;9.07;;;6.70;99.90;;;;;;5080602;28;20222;-79
2022/03/14 19:57:47;;;;;;;9.60;9.30;;;6.70;99.90;;;;;;5079638;28;20333;-82
2022/03/14 20:00:18;;;;;;;9.40;9.10;;;6.60;99.90;;;;;;5071552;28;20231;-81
2022/03/14 20:02:46;;;;;;;9.20;8.90;;;6.50;99.90;;;;;;5070817;28;20306;-81
2022/03/14 20:05:27;;;;;;;9.50;9.20;;;6.40;99.90;;;;;;5071795;28;20226;-82
2022/03/14 20:07:54;;;;;;;9.37;9.07;;;6.30;99.90;;;;;;5072162;28;20258;-82
2022/03/14 20:10:23;;;;;;;9.60;9.30;;;6.20;99.90;;;;;;5069917;28;20231;-82
2022/03/14 20:12:52;;;;;;;9.70;9.40;;;6.10;99.90;;;;;;5069569;28;20219;-82
2022/03/14 20:15:24;;;;;;;9.80;9.50;;;6.10;99.90;;;;;;5069269;28;20242;-81
2022/03/14 20:17:52;;;;;;;10.00;9.70;;;6.00;99.90;;;;;;5067931;28;20242;-82
2022/03/14 20:20:23;;;;;;;9.90;9.60;;;5.90;99.90;;;;;;5068217;28;20237;-81
2022/03/14 20:22:51;;;;;;;10.10;9.80;;;5.70;99.90;;;;;;5071384;28;20246;-81
2022/03/14 20:25:19;;;;;;;9.97;9.67;;;5.60;99.90;;;;;;5074560;28;20237;-82
2022/03/14 20:27:50;;;;;;;9.90;9.60;;;5.40;99.90;;;;;;5072492;28;20230;-82
2022/03/14 20:33:05;;;;;;;10.07;9.77;;;5.20;99.90;;;;;;5070096;28;20218;-81
2022/03/14 20:35:37;;;;;;;10.07;9.77;;;5.10;99.90;;;;;;5070379;28;20286;-82
2022/03/14 20:38:05;;;;;;;10.03;9.73;;;5.10;99.90;;;;;;5069520;28;20237;-81
2022/03/14 20:40:34;;;;;;;10.17;9.87;;;5.10;99.90;;;;;;5069244;28;20235;-83
2022/03/14 20:43:03;;;;;;;10.30;10.00;;;5.20;99.90;;;;;;5075456;28;20210;-80
2022/03/14 20:45:32;;;;;;;11.20;10.87;;;5.20;99.90;;;;;;5076611;28;20231;-82
2022/03/14 20:48:03;;;;;;;9.90;9.60;;;5.10;99.90;;;;;;5073438;28;20235;-81
2022/03/14 20:50:32;;;;;;;9.90;9.60;;;5.10;99.90;;;;;;5070479;28;20265;-82
2022/03/14 20:53:04;;;;;;;10.10;9.80;;;5.10;99.90;;;;;;5070394;28;20310;-82
2022/03/14 20:55:40;;;;;;;10.30;10.00;;;5.00;99.90;;;;;;5069211;28;20313;-82
2022/03/14 20:58:08;;;;;;;10.30;10.00;;;5.00;99.90;;;;;;5068297;28;20219;-82
2022/03/14 21:00:37;;;;;;;10.17;9.87;;;5.00;99.90;;;;;;5068020;28;20249;-82
2022/03/14 21:03:07;;;;;;;9.93;9.63;;;5.00;99.90;;;;;;5068277;28;20290;-82
2022/03/14 21:05:40;;;;;;;10.20;9.90;;;5.00;99.90;;;;;;5068939;28;20234;-82
2022/03/14 21:08:17;;;;;;;10.30;10.00;;;5.00;99.90;;;;;;5068261;28;20298;-83
2022/03/14 21:10:45;;;;;;;10.60;10.30;;;4.80;99.90;;;;;;5068251;28;20293;-83
2022/03/14 21:13:18;;;;;;;10.50;10.20;;;4.80;99.90;;;;;;5069580;28;20219;-82
2022/03/14 21:15:45;;;;;;;10.27;9.97;;;4.80;99.90;;;;;;5069439;28;20283;-82
2022/03/14 21:18:14;;;;;;;10.63;10.33;;;4.70;99.90;;;;;;5067723;28;20245;-82
2022/03/14 21:20:42;;;;;;;10.87;10.57;;;4.70;99.90;;;;;;5069898;28;20302;-82
2022/03/14 21:23:14;;;;;;;10.70;10.40;;;4.70;99.90;;;;;;5065187;28;20227;-82
2022/03/14 21:25:46;;;;;;;10.73;10.43;;;4.60;99.90;;;;;;5065977;28;20246;-82
2022/03/14 21:28:19;;;;;;;10.50;10.20;;;4.60;99.90;;;;;;5071043;28;20257;-82
2022/03/14 21:31:00;;;;;;;10.50;10.20;;;4.60;99.90;;;;;;5069259;28;20346;-81
2022/03/14 21:33:36;;;;;;;10.70;10.40;;;4.60;99.90;;;;;;5066652;28;20215;-82
2022/03/14 21:36:05;;;;;;;10.83;10.53;;;4.50;99.90;;;;;;5066363;28;20234;-82
2022/03/14 21:38:37;;;;;;;10.80;10.50;;;4.50;99.90;;;;;;5066468;28;20231;-82
2022/03/14 21:41:10;;;;;;;11.00;10.70;;;4.50;99.90;;;;;;5069483;28;20262;-83
2022/03/14 21:43:42;;;;;;;10.47;10.17;;;4.40;99.90;;;;;;5065085;28;20246;-82
2022/03/14 21:46:13;;;;;;;10.80;10.50;;;4.30;99.90;;;;;;5065231;28;20238;-82
2022/03/14 21:48:42;;;;;;;10.77;10.47;;;4.30;99.90;;;;;;5063797;28;20237;-83
2022/03/14 21:51:13;;;;;;;11.00;10.70;;;4.30;99.90;;;;;;5061917;28;20277;-82
2022/03/14 21:53:45;;;;;;;10.90;10.60;;;4.20;99.90;;;;;;5066706;28;20296;-82
2022/03/14 21:56:13;;;;;;;10.80;10.50;;;4.20;99.90;;;;;;5067606;28;20241;-83
2022/03/14 21:58:41;;;;;;;10.90;10.60;;;4.20;99.90;;;;;;5070331;28;20242;-83
2022/03/14 22:01:14;;;;;;;11.10;10.80;;;4.10;99.90;;;;;;5067407;28;20234;-83
2022/03/14 22:03:43;;;;;;;11.00;10.70;;;4.00;99.90;;;;;;5068687;28;20256;-83
2022/03/14 22:06:13;;;;;;;10.97;10.67;;;4.00;99.90;;;;;;5069368;28;20230;-82
2022/03/14 22:08:48;;;;;;;11.13;10.83;;;4.00;99.90;;;;;;5067322;28;20669;-83
2022/03/14 22:11:17;;;;;;;10.90;10.60;;;4.00;99.90;;;;;;5067056;28;20349;-83
2022/03/14 22:13:50;;;;;;;10.77;10.47;;;4.00;99.90;;;;;;5066897;28;20324;-83
2022/03/14 22:16:18;;;;;;;10.77;10.47;;;3.90;99.90;;;;;;5066217;28;20277;-82
2022/03/14 22:18:57;;;;;;;11.00;10.70;;;3.90;99.90;;;;;;5065704;28;20278;-83
2022/03/14 22:21:27;;;;;;;10.63;10.33;;;3.90;99.90;;;;;;5065513;28;20292;-82
2022/03/14 22:24:01;;;;;;;10.90;10.60;;;3.90;99.90;;;;;;5070072;28;20618;-82
2022/03/14 22:26:31;;;;;;;11.10;10.80;;;3.90;99.90;;;;;;5087336;28;20293;-83
2022/03/14 22:29:00;;;;;;;10.60;10.30;;;3.80;99.90;;;;;;5064353;28;20243;-83
2022/03/14 22:31:30;;;;;;;11.00;10.70;;;3.80;99.90;;;;;;5063006;28;20246;-82